Terminal Aerodrome Forecast
Issued by NWS Jackson, MS

Home | Current Version | Previous Version | Text Only | Print | Product List | Glossary On
Versions: 1 2 3 4 5 6 7 8 9 10 11
416
FTUS44 KMEG 082324
TAFTUP
TAF
KTUP 082324Z 0900/0924 28010G16KT P6SM OVC070
     FM091400 33012G18KT P6SM OVC045
     FM092300 33007KT P6SM SCT050=

USA.gov is the U.S. government's official web portal to all federal, state and local government web resources and services.